createdAt,value
2018-06-17T00:00:45.450Z,100121.67
2018-06-17T00:03:13.499Z,100119.95
2018-06-17T00:05:42.231Z,100116.96
2018-06-17T00:08:10.493Z,100125.58
2018-06-17T00:10:38.533Z,100121.27
2018-06-17T00:13:06.805Z,100122.98
2018-06-17T00:15:35.335Z,100124.77
2018-06-17T00:18:03.514Z,100118.73
2018-06-17T00:20:31.621Z,100122.59
2018-06-17T00:22:59.827Z,100121.30
2018-06-17T00:25:28.012Z,100123.89
2018-06-17T00:27:56.212Z,100119.56
2018-06-17T00:30:24.571Z,100118.27
2018-06-17T00:32:53.006Z,100125.17
2018-06-17T00:35:21.316Z,100127.34
2018-06-17T00:37:49.505Z,100126.05
2018-06-17T00:40:17.675Z,100130.79
2018-06-17T00:42:46.675Z,100134.27
2018-06-17T00:45:14.752Z,100141.16
2018-06-17T00:47:42.834Z,100133.38
2018-06-17T00:50:10.885Z,100130.38
2018-06-17T00:52:38.991Z,100134.24
2018-06-17T00:55:07.107Z,100134.27
2018-06-17T00:57:45.636Z,100139.86
2018-06-17T01:00:13.921Z,100147.20
2018-06-17T01:02:42.392Z,100149.36
2018-06-17T01:05:10.575Z,100153.20
2018-06-17T01:07:38.657Z,100154.05
2018-06-17T01:10:06.852Z,100154.05
2018-06-17T01:12:35.561Z,100151.50
2018-06-17T01:15:04.860Z,100150.61
2018-06-17T01:17:35.443Z,100148.42
2018-06-17T01:20:03.719Z,100151.80
2018-06-17T01:22:32.732Z,100157.83
2018-06-17T01:25:00.985Z,100160.84
2018-06-17T01:27:29.086Z,100166.00
2018-06-17T01:29:57.353Z,100156.56
2018-06-17T01:32:25.425Z,100162.69
2018-06-17T01:34:53.523Z,100153.66
2018-06-17T01:37:21.829Z,100160.98
2018-06-17T01:39:49.884Z,100158.80
2018-06-17T01:42:18.022Z,100164.28
2018-06-17T01:44:46.185Z,100172.86
2018-06-17T01:47:14.303Z,100180.23
2018-06-17T01:49:42.550Z,100181.14
2018-06-17T01:52:10.613Z,100183.39
2018-06-17T01:54:38.684Z,100182.00
2018-06-17T01:57:06.760Z,100179.39
2018-06-17T01:59:35.883Z,100179.80
2018-06-17T02:02:03.928Z,100183.21
2018-06-17T02:04:37.330Z,100184.42
2018-06-17T02:09:14.135Z,100194.70
2018-06-17T02:11:49.407Z,100201.59
2018-06-17T02:14:22.973Z,100189.16
2018-06-17T02:16:51.020Z,100190.50
2018-06-17T02:19:19.431Z,100192.14
2018-06-17T02:21:47.616Z,100193.36
2018-06-17T02:24:16.039Z,100198.92
2018-06-17T02:26:44.110Z,100205.86
2018-06-17T02:29:12.150Z,100202.58
2018-06-17T02:31:40.455Z,100203.06
2018-06-17T02:34:08.649Z,100197.48
2018-06-17T02:36:36.710Z,100207.38
2018-06-17T02:39:06.786Z,100208.63
2018-06-17T02:41:36.377Z,100198.34
2018-06-17T02:44:04.595Z,100205.63
2018-06-17T02:46:38.351Z,100207.29
2018-06-17T02:49:12.228Z,100207.77
2018-06-17T02:51:45.759Z,100212.44
2018-06-17T02:54:19.189Z,100211.14
2018-06-17T02:56:47.247Z,100218.94
2018-06-17T02:59:15.572Z,100219.31
2018-06-17T03:01:44.529Z,100220.22
2018-06-17T03:04:12.680Z,100217.95
2018-06-17T03:06:40.813Z,100211.82
2018-06-17T03:09:09.926Z,100214.91
2018-06-17T03:11:38.642Z,100224.38
2018-06-17T03:14:07.297Z,100220.14
2018-06-17T03:16:36.594Z,100217.20
2018-06-17T03:19:05.029Z,100212.04
2018-06-17T03:21:33.198Z,100216.30
2018-06-17T03:24:01.346Z,100211.17
2018-06-17T03:26:34.751Z,100221.39
2018-06-17T03:29:08.156Z,100224.80
2018-06-17T03:31:41.686Z,100227.88
2018-06-17T03:34:09.983Z,100232.59
2018-06-17T03:36:38.172Z,100231.27
2018-06-17T03:39:07.938Z,100234.94
2018-06-17T03:41:36.753Z,100236.68
2018-06-17T03:44:04.919Z,100241.28
2018-06-17T03:46:33.005Z,100243.48
2018-06-17T03:49:01.123Z,100252.60
2018-06-17T03:51:29.239Z,100251.41
2018-06-17T03:53:57.433Z,100251.52
2018-06-17T03:56:25.634Z,100262.42
2018-06-17T03:58:54.282Z,100256.19
2018-06-17T04:01:22.446Z,100246.97
2018-06-17T04:03:50.521Z,100258.94
2018-06-17T04:06:18.641Z,100267.70
2018-06-17T04:08:46.841Z,100263.81
2018-06-17T04:11:14.956Z,100266.33
2018-06-17T04:13:43.119Z,100272.08
2018-06-17T04:16:11.204Z,100272.99
2018-06-17T04:18:39.467Z,100266.67
2018-06-17T04:21:07.626Z,100275.02
2018-06-17T04:23:36.723Z,100274.55
2018-06-17T04:26:04.891Z,100275.65
2018-06-17T04:28:32.971Z,100279.73
2018-06-17T04:31:01.072Z,100282.52
2018-06-17T04:33:29.159Z,100279.73
2018-06-17T04:35:57.298Z,100281.23
2018-06-17T04:38:25.872Z,100280.59
2018-06-17T04:40:54.051Z,100281.05
2018-06-17T04:43:22.212Z,100281.72
2018-06-17T04:45:50.351Z,100284.16
2018-06-17T04:48:18.464Z,100285.30
2018-06-17T04:50:46.929Z,100291.03
2018-06-17T04:53:15.139Z,100294.50
2018-06-17T04:55:43.291Z,100297.23
2018-06-17T04:58:11.498Z,100302.27
2018-06-17T05:00:39.768Z,100307.39
2018-06-17T05:03:07.813Z,100307.89
2018-06-17T05:05:36.964Z,100304.01
2018-06-17T05:08:05.361Z,100310.00
2018-06-17T05:10:33.567Z,100312.02
2018-06-17T05:13:01.800Z,100308.13
2018-06-17T05:15:29.855Z,100311.20
2018-06-17T05:17:57.934Z,100313.45
2018-06-17T05:20:26.048Z,100312.53
2018-06-17T05:22:54.092Z,100319.44
2018-06-17T05:25:22.309Z,100313.83
2018-06-17T05:27:50.386Z,100319.30
2018-06-17T05:30:18.507Z,100324.73
2018-06-17T05:32:46.614Z,100326.58
2018-06-17T05:35:14.733Z,100327.50
2018-06-17T05:37:42.962Z,100332.72
2018-06-17T05:40:11.081Z,100333.94
2018-06-17T05:42:39.307Z,100337.20
2018-06-17T05:45:07.435Z,100342.13
2018-06-17T05:47:35.563Z,100337.34
2018-06-17T05:50:03.630Z,100330.88
2018-06-17T05:52:31.761Z,100335.42
2018-06-17T05:55:00.018Z,100339.89
2018-06-17T05:57:28.096Z,100347.56
2018-06-17T05:59:56.181Z,100347.00
2018-06-17T06:02:24.253Z,100345.16
2018-06-17T06:04:52.344Z,100348.97
2018-06-17T06:07:20.404Z,100350.17
2018-06-17T06:09:48.478Z,100346.40
2018-06-17T06:12:16.612Z,100351.16
2018-06-17T06:14:44.858Z,100351.77
2018-06-17T06:17:13.050Z,100349.16
2018-06-17T06:19:41.234Z,100345.37
2018-06-17T06:22:09.433Z,100346.87
2018-06-17T06:24:37.640Z,100347.20
2018-06-17T06:27:05.724Z,100344.81
2018-06-17T06:29:33.898Z,100350.44
2018-06-17T06:32:01.995Z,100346.70
2018-06-17T06:34:30.095Z,100346.33
2018-06-17T06:36:58.326Z,100348.09
2018-06-17T06:39:28.569Z,100351.63
2018-06-17T06:41:56.622Z,100349.35
2018-06-17T06:44:24.674Z,100348.55
2018-06-17T06:46:52.783Z,100359.34
2018-06-17T06:49:20.854Z,100356.27
2018-06-17T06:51:48.931Z,100359.77
2018-06-17T06:54:17.025Z,100354.98
2018-06-17T06:56:45.091Z,100354.14
2018-06-17T06:59:13.171Z,100355.35
2018-06-17T07:01:52.587Z,100361.76
2018-06-17T07:04:32.007Z,100367.39
2018-06-17T07:07:11.552Z,100365.69
2018-06-17T07:09:51.133Z,100366.88
2018-06-17T07:12:19.182Z,100378.58
2018-06-17T07:14:47.302Z,100377.00
2018-06-17T07:17:26.725Z,100373.54
2018-06-17T07:19:54.822Z,100374.41
2018-06-17T07:22:22.905Z,100360.68
2018-06-17T07:24:51.127Z,100357.64
2018-06-17T07:27:30.659Z,100362.27
2018-06-17T07:29:58.743Z,100355.48
2018-06-17T07:32:26.856Z,100356.69
2018-06-17T07:34:54.902Z,100361.02
2018-06-17T07:37:23.019Z,100358.08
2018-06-17T07:40:56.318Z,100364.59
2018-06-17T07:43:24.531Z,100359.44
2018-06-17T07:45:52.621Z,100360.69
2018-06-17T07:49:36.019Z,100363.79
2018-06-17T07:52:16.579Z,100372.91
2018-06-17T07:54:45.063Z,100367.22
2018-06-17T07:57:14.380Z,100362.52
2018-06-17T07:59:42.472Z,100365.08
2018-06-17T08:02:12.439Z,100362.48
2018-06-17T08:04:40.700Z,100364.26
2018-06-17T08:07:08.989Z,100369.02
2018-06-17T08:09:37.928Z,100360.80
2018-06-17T08:12:06.171Z,100365.56
2018-06-17T08:14:34.313Z,100362.55
2018-06-17T08:17:02.444Z,100359.08
2018-06-17T08:19:30.783Z,100364.69
2018-06-17T08:21:59.611Z,100360.80
2018-06-17T08:24:28.182Z,100362.11
2018-06-17T08:26:56.701Z,100359.47
2018-06-17T08:29:25.346Z,100356.89
2018-06-17T08:31:53.858Z,100357.36
2018-06-17T08:34:22.130Z,100358.64
2018-06-17T08:36:50.210Z,100356.48
2018-06-17T08:39:19.486Z,100363.84
2018-06-17T08:41:47.555Z,100368.16
2018-06-17T08:44:16.296Z,100360.39
2018-06-17T08:46:45.194Z,100363.41
2018-06-17T08:49:13.678Z,100366.45
2018-06-17T08:51:41.841Z,100366.88
2018-06-17T08:54:09.932Z,100367.72
2018-06-17T08:56:38.447Z,100370.78
2018-06-17T08:59:06.558Z,100371.64
2018-06-17T09:01:34.663Z,100368.53
2018-06-17T09:04:02.757Z,100372.05
2018-06-17T09:06:30.814Z,100375.53
2018-06-17T09:08:59.057Z,100377.67
2018-06-17T09:11:27.142Z,100383.74
2018-06-17T09:13:55.803Z,100375.48
2018-06-17T09:16:24.553Z,100374.09
2018-06-17T09:18:53.123Z,100374.12
2018-06-17T09:21:21.150Z,100378.08
2018-06-17T09:23:49.207Z,100372.45
2018-06-17T09:26:17.345Z,100375.94
2018-06-17T09:28:45.530Z,100370.30
2018-06-17T09:31:13.608Z,100365.72
2018-06-17T09:33:42.894Z,100359.22
2018-06-17T09:36:11.117Z,100370.19
2018-06-17T09:38:39.410Z,100371.05
2018-06-17T09:45:48.387Z,100363.82
2018-06-17T09:48:17.092Z,100355.00
2018-06-17T09:50:45.286Z,100354.01
2018-06-17T09:53:13.381Z,100360.64
2018-06-17T09:55:42.515Z,100364.77
2018-06-17T09:58:10.704Z,100370.16
2018-06-17T10:00:38.890Z,100363.70
2018-06-17T10:03:06.920Z,100373.57
2018-06-17T10:05:35.002Z,100362.80
2018-06-17T10:08:03.099Z,100366.63
2018-06-17T10:11:09.307Z,100375.04
2018-06-17T10:13:40.727Z,100357.67
2018-06-17T10:16:09.227Z,100359.16
2018-06-17T10:18:37.286Z,100364.16
2018-06-17T10:21:05.752Z,100355.91
2018-06-17T10:23:33.837Z,100360.77
2018-06-17T10:26:01.921Z,100344.91
2018-06-17T10:28:32.163Z,100346.16
2018-06-17T10:31:01.492Z,100348.61
2018-06-17T10:33:29.704Z,100347.41
2018-06-17T10:35:57.794Z,100337.44
2018-06-17T10:38:26.302Z,100336.77
2018-06-17T10:40:54.857Z,100335.04
2018-06-17T10:43:24.836Z,100336.48
2018-06-17T10:45:52.918Z,100342.37
2018-06-17T10:48:21.243Z,100340.07
2018-06-17T10:50:49.316Z,100333.23
2018-06-17T10:53:17.368Z,100332.09
2018-06-17T10:55:45.588Z,100346.17
2018-06-17T10:58:13.581Z,100349.05
2018-06-17T11:00:41.681Z,100351.30
2018-06-17T11:03:09.804Z,100349.21
2018-06-17T11:05:38.998Z,100354.70
2018-06-17T11:08:06.969Z,100349.27
2018-06-17T11:10:35.105Z,100345.60
2018-06-17T11:13:03.317Z,100343.06
2018-06-17T11:15:31.439Z,100329.96
2018-06-17T11:17:59.514Z,100328.79
2018-06-17T11:20:27.706Z,100335.52
2018-06-17T11:22:56.009Z,100329.21
2018-06-17T11:25:24.061Z,100343.39
2018-06-17T11:27:52.274Z,100331.95
2018-06-17T11:30:21.365Z,100332.39
2018-06-17T11:32:49.479Z,100334.92
2018-06-17T11:35:17.574Z,100336.91
2018-06-17T11:37:45.635Z,100327.47
2018-06-17T11:40:14.496Z,100325.34
2018-06-17T11:42:43.005Z,100326.08
2018-06-17T11:45:11.566Z,100329.51
2018-06-17T11:47:39.693Z,100325.08
2018-06-17T11:50:07.846Z,100331.01
2018-06-17T11:52:35.995Z,100325.64
2018-06-17T11:55:04.293Z,100329.20
2018-06-17T11:57:32.383Z,100322.33
2018-06-17T12:00:00.527Z,100325.72
2018-06-17T12:02:28.642Z,100331.01
2018-06-17T12:04:56.807Z,100321.02
2018-06-17T12:07:25.079Z,100323.19
2018-06-17T12:09:53.134Z,100313.52
2018-06-17T12:12:21.313Z,100315.91
2018-06-17T12:14:49.457Z,100310.98
2018-06-17T12:17:17.568Z,100308.02
2018-06-17T12:19:45.643Z,100310.81
2018-06-17T12:22:13.784Z,100313.02
2018-06-17T12:24:41.957Z,100312.89
2018-06-17T12:27:10.046Z,100310.58
2018-06-17T12:29:39.163Z,100314.67
2018-06-17T12:32:07.270Z,100316.30
2018-06-17T12:34:35.582Z,100308.59
2018-06-17T12:37:03.822Z,100306.59
2018-06-17T12:39:31.919Z,100309.11
2018-06-17T12:42:00.171Z,100308.43
2018-06-17T12:44:29.429Z,100304.83
2018-06-17T12:46:57.495Z,100299.47
2018-06-17T12:49:25.687Z,100299.88
2018-06-17T12:51:53.814Z,100300.36
2018-06-17T12:54:22.205Z,100306.50
2018-06-17T12:56:50.259Z,100313.04
2018-06-17T12:59:18.372Z,100305.03
2018-06-17T13:01:46.617Z,100296.08
2018-06-17T13:04:14.686Z,100302.59
2018-06-17T13:06:42.857Z,100298.52
2018-06-17T13:09:11.795Z,100299.55
2018-06-17T13:11:40.026Z,100298.89
2018-06-17T13:14:08.468Z,100292.56
2018-06-17T13:16:36.752Z,100287.88
2018-06-17T13:19:05.280Z,100296.45
2018-06-17T13:21:33.666Z,100280.75
2018-06-17T13:24:01.906Z,100303.37
2018-06-17T13:26:30.196Z,100294.05
2018-06-17T13:28:58.921Z,100293.26
2018-06-17T13:31:27.000Z,100295.60
2018-06-17T13:33:55.154Z,100300.25
2018-06-17T13:36:23.278Z,100292.94
2018-06-17T13:38:51.362Z,100290.41
2018-06-17T13:41:19.542Z,100302.26
2018-06-17T13:43:48.162Z,100298.62
2018-06-17T13:46:16.325Z,100301.68
2018-06-17T13:48:44.661Z,100303.66
2018-06-17T13:51:13.966Z,100309.61
2018-06-17T13:53:42.075Z,100306.03
2018-06-17T13:56:10.294Z,100298.29
2018-06-17T13:58:38.549Z,100296.61
2018-06-17T14:01:06.698Z,100312.46
2018-06-17T14:03:34.960Z,100304.56
2018-06-17T14:06:03.001Z,100305.84
2018-06-17T14:08:31.096Z,100317.53
2018-06-17T14:10:59.346Z,100315.58
2018-06-17T14:13:27.545Z,100321.63
2018-06-17T14:15:55.537Z,100319.91
2018-06-17T14:18:23.670Z,100323.09
2018-06-17T14:20:51.779Z,100318.80
2018-06-17T14:23:19.950Z,100329.09
2018-06-17T14:25:48.025Z,100320.34
2018-06-17T14:28:16.215Z,100312.67
2018-06-17T14:30:44.435Z,100316.52
2018-06-17T14:33:12.536Z,100318.11
2018-06-17T14:35:40.637Z,100324.98
2018-06-17T14:38:09.723Z,100312.14
2018-06-17T14:40:43.125Z,100320.59
2018-06-17T14:43:17.382Z,100326.88
2018-06-17T14:45:50.927Z,100326.81
2018-06-17T14:48:24.332Z,100327.17
2018-06-17T14:50:58.705Z,100322.94
2018-06-17T14:53:26.867Z,100322.41
2018-06-17T14:55:54.975Z,100315.29
2018-06-17T14:58:23.057Z,100319.67
2018-06-17T15:00:51.149Z,100323.45
2018-06-17T15:03:19.535Z,100326.22
2018-06-17T15:05:47.650Z,100320.84
2018-06-17T15:08:15.769Z,100331.53
2018-06-17T15:10:43.901Z,100324.54
2018-06-17T15:13:11.967Z,100329.95
2018-06-17T15:15:40.101Z,100325.19
2018-06-17T15:18:14.854Z,100321.75
2018-06-17T15:20:42.850Z,100337.46
2018-06-17T15:23:10.887Z,100327.59
2018-06-17T15:25:39.958Z,100321.70
2018-06-17T15:28:08.109Z,100323.55
2018-06-17T15:30:36.175Z,100326.08
2018-06-17T15:33:09.499Z,100328.14
2018-06-17T15:35:43.106Z,100329.84
2018-06-17T15:38:16.610Z,100335.06
2018-06-17T15:40:50.097Z,100327.02
2018-06-17T15:43:18.207Z,100330.62
2018-06-17T15:45:46.492Z,100334.75
2018-06-17T15:48:15.638Z,100338.97
2018-06-17T15:50:43.838Z,100337.02
2018-06-17T15:53:11.817Z,100339.61
2018-06-17T15:55:40.092Z,100336.98
2018-06-17T15:58:08.170Z,100336.07
2018-06-17T16:00:36.659Z,100336.59
2018-06-17T16:03:04.753Z,100331.26
2018-06-17T16:05:32.871Z,100344.47
2018-06-17T16:08:01.035Z,100347.11
2018-06-17T16:10:29.624Z,100347.11
2018-06-17T16:13:03.191Z,100346.66
2018-06-17T16:15:36.782Z,100361.02
2018-06-17T16:18:10.182Z,100347.61
2018-06-17T16:20:43.710Z,100352.77
2018-06-17T16:23:11.838Z,100354.06
2018-06-17T16:25:40.578Z,100355.77
2018-06-17T16:28:08.678Z,100353.70
2018-06-17T16:30:36.727Z,100358.86
2018-06-17T16:33:04.827Z,100365.32
2018-06-17T16:35:32.878Z,100376.28
2018-06-17T16:38:00.937Z,100358.00
2018-06-17T16:40:29.077Z,100361.72
2018-06-17T16:42:58.177Z,100373.56
2018-06-17T16:45:26.447Z,100361.05
2018-06-17T16:47:54.454Z,100361.27
2018-06-17T16:50:22.640Z,100364.02
2018-06-17T16:52:56.027Z,100362.22
2018-06-17T16:55:29.484Z,100355.45
2018-06-17T16:58:03.071Z,100348.91
2018-06-17T17:00:31.209Z,100349.80
2018-06-17T17:02:59.267Z,100361.98
2018-06-17T17:05:27.651Z,100361.60
2018-06-17T17:07:56.748Z,100365.97
2018-06-17T17:10:24.831Z,100369.02
2018-06-17T17:12:52.883Z,100373.31
2018-06-17T17:15:21.007Z,100365.44
2018-06-17T17:17:49.096Z,100366.74
2018-06-17T17:20:17.354Z,100368.09
2018-06-17T17:22:45.526Z,100372.87
2018-06-17T17:25:13.690Z,100383.66
2018-06-17T17:27:42.585Z,100387.13
2018-06-17T17:30:10.858Z,100383.25
2018-06-17T17:32:44.204Z,100386.68
2018-06-17T17:35:17.634Z,100383.60
2018-06-17T17:37:51.098Z,100381.95
2018-06-17T17:40:24.528Z,100393.24
2018-06-17T17:42:52.645Z,100392.34
2018-06-17T17:45:22.810Z,100402.80
2018-06-17T17:47:51.010Z,100400.63
2018-06-17T17:50:19.057Z,100410.56
2018-06-17T17:52:47.167Z,100414.89
2018-06-17T17:55:15.411Z,100412.76
2018-06-17T17:57:43.642Z,100416.22
2018-06-17T18:00:11.707Z,100407.98
2018-06-17T18:02:40.791Z,100418.38
2018-06-17T18:05:09.149Z,100420.52
2018-06-17T18:07:37.243Z,100420.98
2018-06-17T18:10:05.359Z,100424.42
2018-06-17T18:12:33.498Z,100420.55
2018-06-17T18:15:01.659Z,100425.73
2018-06-17T18:17:29.798Z,100428.75
2018-06-17T18:19:57.917Z,100432.22
2018-06-17T18:22:26.110Z,100433.08
2018-06-17T18:24:59.656Z,100432.62
2018-06-17T18:27:33.219Z,100441.67
2018-06-17T18:30:06.773Z,100444.28
2018-06-17T18:32:40.154Z,100454.64
2018-06-17T18:35:13.693Z,100454.16
2018-06-17T18:37:41.812Z,100446.79
2018-06-17T18:40:10.968Z,100451.59
2018-06-17T18:42:39.089Z,100452.92
2018-06-17T18:45:07.243Z,100450.33
2018-06-17T18:47:35.406Z,100453.38
2018-06-17T18:50:03.452Z,100464.15
2018-06-17T18:52:31.535Z,100458.84
2018-06-17T18:54:59.629Z,100459.28
2018-06-17T18:57:27.807Z,100459.73
2018-06-17T18:59:56.122Z,100457.58
2018-06-17T19:02:24.175Z,100457.58
2018-06-17T19:04:52.719Z,100461.03
2018-06-17T19:07:20.873Z,100464.92
2018-06-17T19:09:54.383Z,100465.36
2018-06-17T19:12:27.827Z,100466.22
2018-06-17T19:15:01.412Z,100476.44
2018-06-17T19:17:36.294Z,100473.84
2018-06-17T19:20:04.568Z,100483.32
2018-06-17T19:22:32.710Z,100487.26
2018-06-17T19:25:00.783Z,100488.82
2018-06-17T19:27:28.958Z,100493.53
2018-06-17T19:29:57.159Z,100487.91
2018-06-17T19:32:25.543Z,100495.66
2018-06-17T19:34:53.725Z,100496.56
2018-06-17T19:37:22.803Z,100492.97
2018-06-17T19:39:50.860Z,100503.28
2018-06-17T19:42:18.950Z,100499.38
2018-06-17T19:44:47.011Z,100504.02
2018-06-17T19:47:15.172Z,100499.75
2018-06-17T19:49:48.644Z,100510.09
2018-06-17T19:52:21.970Z,100513.58
2018-06-17T19:54:55.378Z,100514.42
2018-06-17T19:57:29.410Z,100521.31
2018-06-17T20:00:02.918Z,100520.49
2018-06-17T20:02:31.127Z,100520.98
2018-06-17T20:04:59.181Z,100515.98
2018-06-17T20:07:27.356Z,100515.98
2018-06-17T20:09:55.432Z,100510.34
2018-06-17T20:12:23.539Z,100514.20
2018-06-17T20:14:52.178Z,100514.70
2018-06-17T20:17:21.115Z,100509.56
2018-06-17T20:19:49.128Z,100512.16
2018-06-17T20:22:17.271Z,100507.14
2018-06-17T20:24:45.343Z,100510.95
2018-06-17T20:27:13.548Z,100515.84
2018-06-17T20:29:41.697Z,100511.05
2018-06-17T20:32:15.334Z,100504.77
2018-06-17T20:34:48.800Z,100511.13
2018-06-17T20:37:22.790Z,100514.72
2018-06-17T20:40:55.818Z,100524.13
2018-06-17T20:43:29.675Z,100528.75
2018-06-17T20:45:58.107Z,100532.00
2018-06-17T20:48:26.170Z,100537.52
2018-06-17T20:50:54.635Z,100541.05
2018-06-17T20:53:22.960Z,100544.55
2018-06-17T20:55:51.010Z,100544.47
2018-06-17T20:58:19.194Z,100548.35
2018-06-17T21:00:47.264Z,100561.74
2018-06-17T21:03:15.372Z,100564.95
2018-06-17T21:05:43.459Z,100564.95
2018-06-17T21:08:11.540Z,100565.79
2018-06-17T21:10:39.760Z,100577.38
2018-06-17T21:13:07.822Z,100586.39
2018-06-17T21:15:35.877Z,100581.73
2018-06-17T21:18:04.571Z,100593.23
2018-06-17T21:20:37.853Z,100592.11
2018-06-17T21:23:11.195Z,100596.19
2018-06-17T21:25:44.751Z,100592.63
2018-06-17T21:28:14.020Z,100606.15
2018-06-17T21:30:42.157Z,100606.63
2018-06-17T21:33:10.395Z,100614.19
2018-06-17T21:35:38.632Z,100609.27
2018-06-17T21:38:06.784Z,100621.02
2018-06-17T21:40:34.848Z,100624.78
2018-06-17T21:43:03.070Z,100626.77
2018-06-17T21:45:31.367Z,100627.02
2018-06-17T21:47:59.451Z,100625.16
2018-06-17T21:50:27.669Z,100629.44
2018-06-17T21:52:55.709Z,100628.36
2018-06-17T21:55:23.773Z,100631.25
2018-06-17T21:57:51.934Z,100622.86
2018-06-17T22:00:20.154Z,100623.84
2018-06-17T22:02:48.207Z,100626.30
2018-06-17T22:05:16.263Z,100633.64
2018-06-17T22:07:49.739Z,100624.16
2018-06-17T22:10:23.319Z,100626.45
2018-06-17T22:12:56.801Z,100625.75
2018-06-17T22:15:30.239Z,100629.70
2018-06-17T22:17:58.335Z,100632.03
2018-06-17T22:20:26.379Z,100638.57
2018-06-17T22:22:54.419Z,100640.67
2018-06-17T22:25:22.475Z,100638.11
2018-06-17T22:27:50.586Z,100646.70
2018-06-17T22:30:18.655Z,100646.76
2018-06-17T22:32:46.889Z,100642.80
2018-06-17T22:35:15.063Z,100643.66
2018-06-17T22:37:43.107Z,100638.70
2018-06-17T22:40:12.090Z,100640.37
2018-06-17T22:42:40.398Z,100651.34
2018-06-17T22:45:08.665Z,100652.27
2018-06-17T22:47:42.331Z,100653.30
2018-06-17T22:50:10.621Z,100650.59
2018-06-17T22:52:51.127Z,100648.72
2018-06-17T22:55:19.259Z,100645.52
2018-06-17T22:57:52.715Z,100652.34
2018-06-17T23:00:26.247Z,100649.37
2018-06-17T23:02:59.791Z,100649.89
2018-06-17T23:05:33.119Z,100655.36
2018-06-17T23:08:06.555Z,100650.81
2018-06-17T23:10:34.741Z,100651.95
2018-06-17T23:13:02.840Z,100653.64
2018-06-17T23:15:31.276Z,100659.80
2018-06-17T23:17:59.389Z,100661.95
2018-06-17T23:20:27.630Z,100661.98
2018-06-17T23:22:56.077Z,100657.64
2018-06-17T23:25:24.279Z,100660.23
2018-06-17T23:27:52.439Z,100658.20
2018-06-17T23:30:20.694Z,100659.70
2018-06-17T23:32:48.776Z,100664.83
2018-06-17T23:35:17.057Z,100662.86
2018-06-17T23:37:45.299Z,100664.69
2018-06-17T23:40:13.617Z,100670.25
2018-06-17T23:42:42.234Z,100677.96
2018-06-17T23:45:10.526Z,100680.75
2018-06-17T23:47:44.140Z,100677.77
2018-06-17T23:50:17.628Z,100678.03
2018-06-17T23:52:51.020Z,100671.89
2018-06-17T23:55:24.433Z,100680.66
2018-06-17T23:57:52.751Z,100678.44
